Terminal Aerodrome Forecast
Issued by NWS

Home | Current Version | Previous Version | Text Only | Print | Product List | Glossary Off
Versions: 1 2 3 4 5 6 7 8 9 10 11 12 13 14 15 16 17

506
FTUS42 KMHX 140547
TAFISO
TAF
KISO 140547Z 1406/1506 34006KT P6SM OVC010
     FM140700 34006KT P6SM OVC007
     FM141100 34008KT 5SM BR OVC007
     FM141400 35007KT P6SM OVC015
     FM141700 35007KT P6SM BKN025
     FM142000 36005KT P6SM BKN040
      AMD LTD TO CLD VIS AND WIND=

USA.gov is the U.S. government's official web portal to all federal, state and local government web resources and services.